sensor_id;sensor_type;location;lat;lon;timestamp;temperature;humidity
2571;DHT22;1295;51.130;6.732;2023-08-06T00:02:12;18.60;99.90
2571;DHT22;1295;51.130;6.732;2023-08-06T00:04:38;18.40;99.90
2571;DHT22;1295;51.130;6.732;2023-08-06T00:07:04;18.50;99.90
2571;DHT22;1295;51.130;6.732;2023-08-06T00:09:30;18.40;99.90
2571;DHT22;1295;51.130;6.732;2023-08-06T00:11:56;18.50;99.90
2571;DHT22;1295;51.130;6.732;2023-08-06T00:14:21;18.50;99.90
2571;DHT22;1295;51.130;6.732;2023-08-06T00:16:47;18.40;99.90
2571;DHT22;1295;51.130;6.732;2023-08-06T00:19:13;18.50;99.90
2571;DHT22;1295;51.130;6.732;2023-08-06T00:21:38;18.20;99.90
2571;DHT22;1295;51.130;6.732;2023-08-06T00:24:04;18.10;99.90
2571;DHT22;1295;51.130;6.732;2023-08-06T00:26:30;17.90;99.90
2571;DHT22;1295;51.130;6.732;2023-08-06T00:28:55;18.00;99.90
2571;DHT22;1295;51.130;6.732;2023-08-06T00:31:21;18.10;99.90
2571;DHT22;1295;51.130;6.732;2023-08-06T00:33:46;18.20;99.90
2571;DHT22;1295;51.130;6.732;2023-08-06T00:36:12;18.30;99.90
2571;DHT22;1295;51.130;6.732;2023-08-06T00:38:38;18.40;99.90
2571;DHT22;1295;51.130;6.732;2023-08-06T00:41:10;18.40;99.90
2571;DHT22;1295;51.130;6.732;2023-08-06T00:43:36;18.20;99.90
2571;DHT22;1295;51.130;6.732;2023-08-06T00:46:01;18.00;99.90
2571;DHT22;1295;51.130;6.732;2023-08-06T00:48:27;18.00;99.90
2571;DHT22;1295;51.130;6.732;2023-08-06T00:50:53;18.00;99.90
2571;DHT22;1295;51.130;6.732;2023-08-06T00:53:18;18.20;99.90
2571;DHT22;1295;51.130;6.732;2023-08-06T00:55:44;18.20;99.90
2571;DHT22;1295;51.130;6.732;2023-08-06T00:58:10;18.40;99.90
2571;DHT22;1295;51.130;6.732;2023-08-06T01:00:35;18.20;99.90
2571;DHT22;1295;51.130;6.732;2023-08-06T01:03:01;18.10;99.90
2571;DHT22;1295;51.130;6.732;2023-08-06T01:05:27;18.00;99.90
2571;DHT22;1295;51.130;6.732;2023-08-06T01:08:11;18.00;99.90
2571;DHT22;1295;51.130;6.732;2023-08-06T01:10:40;18.30;99.90
2571;DHT22;1295;51.130;6.732;2023-08-06T01:13:39;18.00;99.90
2571;DHT22;1295;51.130;6.732;2023-08-06T01:15:47;18.00;99.90
2571;DHT22;1295;51.130;6.732;2023-08-06T01:18:12;18.30;99.90
2571;DHT22;1295;51.130;6.732;2023-08-06T01:20:44;18.30;99.90
2571;DHT22;1295;51.130;6.732;2023-08-06T01:23:11;18.00;99.90
2571;DHT22;1295;51.130;6.732;2023-08-06T01:25:47;18.10;99.90
2571;DHT22;1295;51.130;6.732;2023-08-06T01:28:11;17.80;99.90
2571;DHT22;1295;51.130;6.732;2023-08-06T01:30:33;18.00;99.90
2571;DHT22;1295;51.130;6.732;2023-08-06T01:33:01;18.30;99.90
2571;DHT22;1295;51.130;6.732;2023-08-06T01:35:26;18.30;99.90
2571;DHT22;1295;51.130;6.732;2023-08-06T01:37:52;18.40;99.90
2571;DHT22;1295;51.130;6.732;2023-08-06T01:40:17;18.20;99.90
2571;DHT22;1295;51.130;6.732;2023-08-06T01:42:43;18.30;99.90
2571;DHT22;1295;51.130;6.732;2023-08-06T01:45:09;18.00;99.90
2571;DHT22;1295;51.130;6.732;2023-08-06T01:47:36;17.80;99.90
2571;DHT22;1295;51.130;6.732;2023-08-06T01:50:01;17.80;99.90
2571;DHT22;1295;51.130;6.732;2023-08-06T01:52:27;18.10;99.90
2571;DHT22;1295;51.130;6.732;2023-08-06T01:54:53;18.10;99.90
2571;DHT22;1295;51.130;6.732;2023-08-06T01:57:18;18.30;99.90
2571;DHT22;1295;51.130;6.732;2023-08-06T01:59:44;18.00;99.90
2571;DHT22;1295;51.130;6.732;2023-08-06T02:02:10;18.10;99.90
2571;DHT22;1295;51.130;6.732;2023-08-06T02:04:36;18.20;99.90
2571;DHT22;1295;51.130;6.732;2023-08-06T02:07:02;18.20;99.90
2571;DHT22;1295;51.130;6.732;2023-08-06T02:09:28;18.20;99.90
2571;DHT22;1295;51.130;6.732;2023-08-06T02:11:53;18.20;99.90
2571;DHT22;1295;51.130;6.732;2023-08-06T02:14:19;17.90;99.90
2571;DHT22;1295;51.130;6.732;2023-08-06T02:16:44;17.80;99.90
2571;DHT22;1295;51.130;6.732;2023-08-06T02:19:10;17.80;99.90
2571;DHT22;1295;51.130;6.732;2023-08-06T02:21:36;16.90;99.90
2571;DHT22;1295;51.130;6.732;2023-08-06T02:24:02;17.00;99.90
2571;DHT22;1295;51.130;6.732;2023-08-06T02:26:27;16.90;99.90
2571;DHT22;1295;51.130;6.732;2023-08-06T02:28:53;17.60;99.90
2571;DHT22;1295;51.130;6.732;2023-08-06T02:31:19;17.90;99.90
2571;DHT22;1295;51.130;6.732;2023-08-06T02:33:44;18.10;99.90
2571;DHT22;1295;51.130;6.732;2023-08-06T02:36:11;18.30;99.90
2571;DHT22;1295;51.130;6.732;2023-08-06T02:38:36;18.20;99.90
2571;DHT22;1295;51.130;6.732;2023-08-06T02:41:02;18.30;99.90
2571;DHT22;1295;51.130;6.732;2023-08-06T02:43:27;18.30;99.90
2571;DHT22;1295;51.130;6.732;2023-08-06T02:45:56;18.30;99.90
2571;DHT22;1295;51.130;6.732;2023-08-06T02:48:19;18.20;99.90
2571;DHT22;1295;51.130;6.732;2023-08-06T02:50:50;18.30;99.90
2571;DHT22;1295;51.130;6.732;2023-08-06T02:53:16;18.30;99.90
2571;DHT22;1295;51.130;6.732;2023-08-06T02:55:45;18.30;99.90
2571;DHT22;1295;51.130;6.732;2023-08-06T02:58:10;18.20;99.90
2571;DHT22;1295;51.130;6.732;2023-08-06T03:00:36;18.20;99.90
2571;DHT22;1295;51.130;6.732;2023-08-06T03:03:02;18.20;99.90
2571;DHT22;1295;51.130;6.732;2023-08-06T03:05:28;18.20;99.90
2571;DHT22;1295;51.130;6.732;2023-08-06T03:07:54;18.20;99.90
2571;DHT22;1295;51.130;6.732;2023-08-06T03:10:20;18.20;99.90
2571;DHT22;1295;51.130;6.732;2023-08-06T03:12:45;18.20;99.90
2571;DHT22;1295;51.130;6.732;2023-08-06T03:15:11;18.20;99.90
2571;DHT22;1295;51.130;6.732;2023-08-06T03:17:36;18.20;99.90
2571;DHT22;1295;51.130;6.732;2023-08-06T03:20:03;18.20;99.90
2571;DHT22;1295;51.130;6.732;2023-08-06T03:22:29;18.20;99.90
2571;DHT22;1295;51.130;6.732;2023-08-06T03:24:55;18.10;99.90
2571;DHT22;1295;51.130;6.732;2023-08-06T03:27:21;18.20;99.90
2571;DHT22;1295;51.130;6.732;2023-08-06T03:29:48;18.20;99.90
2571;DHT22;1295;51.130;6.732;2023-08-06T03:32:12;18.20;99.90
2571;DHT22;1295;51.130;6.732;2023-08-06T03:34:37;18.20;99.90
2571;DHT22;1295;51.130;6.732;2023-08-06T03:37:04;18.20;99.90
2571;DHT22;1295;51.130;6.732;2023-08-06T03:39:29;18.20;99.90
2571;DHT22;1295;51.130;6.732;2023-08-06T03:41:55;18.20;99.90
2571;DHT22;1295;51.130;6.732;2023-08-06T03:44:21;18.20;99.90
2571;DHT22;1295;51.130;6.732;2023-08-06T03:46:46;18.10;99.90
2571;DHT22;1295;51.130;6.732;2023-08-06T03:49:12;18.10;99.90
2571;DHT22;1295;51.130;6.732;2023-08-06T03:51:38;18.00;99.90
2571;DHT22;1295;51.130;6.732;2023-08-06T03:54:03;18.00;99.90
2571;DHT22;1295;51.130;6.732;2023-08-06T03:56:29;18.00;99.90
2571;DHT22;1295;51.130;6.732;2023-08-06T03:58:54;18.00;99.90
2571;DHT22;1295;51.130;6.732;2023-08-06T04:01:20;17.90;99.90
2571;DHT22;1295;51.130;6.732;2023-08-06T04:03:46;17.70;99.90
2571;DHT22;1295;51.130;6.732;2023-08-06T04:06:12;17.70;99.90
2571;DHT22;1295;51.130;6.732;2023-08-06T04:08:38;17.20;99.90
2571;DHT22;1295;51.130;6.732;2023-08-06T04:11:03;17.50;99.90
2571;DHT22;1295;51.130;6.732;2023-08-06T04:13:29;17.70;99.90
2571;DHT22;1295;51.130;6.732;2023-08-06T04:15:55;17.90;99.90
2571;DHT22;1295;51.130;6.732;2023-08-06T04:18:20;17.80;99.90
2571;DHT22;1295;51.130;6.732;2023-08-06T04:20:46;17.70;99.90
2571;DHT22;1295;51.130;6.732;2023-08-06T04:23:12;17.40;99.90
2571;DHT22;1295;51.130;6.732;2023-08-06T04:25:38;17.40;99.90
2571;DHT22;1295;51.130;6.732;2023-08-06T04:28:04;17.50;99.90
2571;DHT22;1295;51.130;6.732;2023-08-06T04:30:29;17.30;99.90
2571;DHT22;1295;51.130;6.732;2023-08-06T04:32:56;17.70;99.90
2571;DHT22;1295;51.130;6.732;2023-08-06T04:35:20;17.70;99.90
2571;DHT22;1295;51.130;6.732;2023-08-06T04:37:46;17.10;99.90
2571;DHT22;1295;51.130;6.732;2023-08-06T04:40:12;16.90;99.90
2571;DHT22;1295;51.130;6.732;2023-08-06T04:42:37;17.40;99.90
2571;DHT22;1295;51.130;6.732;2023-08-06T04:45:04;17.40;99.90
2571;DHT22;1295;51.130;6.732;2023-08-06T04:47:30;17.80;99.90
2571;DHT22;1295;51.130;6.732;2023-08-06T04:49:56;17.80;99.90
2571;DHT22;1295;51.130;6.732;2023-08-06T04:52:22;17.90;99.90
2571;DHT22;1295;51.130;6.732;2023-08-06T04:54:47;17.90;99.90
2571;DHT22;1295;51.130;6.732;2023-08-06T04:57:14;17.90;99.90
2571;DHT22;1295;51.130;6.732;2023-08-06T04:59:39;17.90;99.90
2571;DHT22;1295;51.130;6.732;2023-08-06T05:02:05;17.90;99.90
2571;DHT22;1295;51.130;6.732;2023-08-06T05:04:30;17.90;99.90
2571;DHT22;1295;51.130;6.732;2023-08-06T05:06:56;17.90;99.90
2571;DHT22;1295;51.130;6.732;2023-08-06T05:09:23;17.90;99.90
2571;DHT22;1295;51.130;6.732;2023-08-06T05:11:48;17.90;99.90
2571;DHT22;1295;51.130;6.732;2023-08-06T05:14:22;17.80;99.90
2571;DHT22;1295;51.130;6.732;2023-08-06T05:16:47;17.80;99.90
2571;DHT22;1295;51.130;6.732;2023-08-06T05:19:13;17.80;99.90
2571;DHT22;1295;51.130;6.732;2023-08-06T05:21:39;17.80;99.90
2571;DHT22;1295;51.130;6.732;2023-08-06T05:24:04;17.80;99.90
2571;DHT22;1295;51.130;6.732;2023-08-06T05:26:30;17.50;99.90
2571;DHT22;1295;51.130;6.732;2023-08-06T05:28:55;16.80;99.90
2571;DHT22;1295;51.130;6.732;2023-08-06T05:31:21;17.30;99.90
2571;DHT22;1295;51.130;6.732;2023-08-06T05:33:47;17.20;99.90
2571;DHT22;1295;51.130;6.732;2023-08-06T05:36:12;17.40;99.90
2571;DHT22;1295;51.130;6.732;2023-08-06T05:38:38;17.60;99.90
2571;DHT22;1295;51.130;6.732;2023-08-06T05:41:04;17.60;99.90
2571;DHT22;1295;51.130;6.732;2023-08-06T05:43:30;17.60;99.90
2571;DHT22;1295;51.130;6.732;2023-08-06T05:45:56;17.70;99.90
2571;DHT22;1295;51.130;6.732;2023-08-06T05:48:22;17.60;99.90
2571;DHT22;1295;51.130;6.732;2023-08-06T05:50:48;17.80;99.90
2571;DHT22;1295;51.130;6.732;2023-08-06T05:53:13;17.80;99.90
2571;DHT22;1295;51.130;6.732;2023-08-06T05:55:40;17.50;99.90
2571;DHT22;1295;51.130;6.732;2023-08-06T05:58:05;17.50;99.90
2571;DHT22;1295;51.130;6.732;2023-08-06T06:00:31;17.70;99.90
2571;DHT22;1295;51.130;6.732;2023-08-06T06:02:57;17.70;99.90
2571;DHT22;1295;51.130;6.732;2023-08-06T06:05:22;17.80;99.90
2571;DHT22;1295;51.130;6.732;2023-08-06T06:07:48;17.70;99.90
2571;DHT22;1295;51.130;6.732;2023-08-06T06:10:14;17.80;99.90
2571;DHT22;1295;51.130;6.732;2023-08-06T06:12:40;17.80;99.90
2571;DHT22;1295;51.130;6.732;2023-08-06T06:15:07;17.80;99.90
2571;DHT22;1295;51.130;6.732;2023-08-06T06:17:33;17.80;99.90
2571;DHT22;1295;51.130;6.732;2023-08-06T06:19:59;17.80;99.90
2571;DHT22;1295;51.130;6.732;2023-08-06T06:22:24;17.80;99.90
2571;DHT22;1295;51.130;6.732;2023-08-06T06:24:50;17.80;99.90
2571;DHT22;1295;51.130;6.732;2023-08-06T06:27:16;17.80;99.90
2571;DHT22;1295;51.130;6.732;2023-08-06T06:29:41;17.70;99.90
2571;DHT22;1295;51.130;6.732;2023-08-06T06:32:07;17.80;99.90
2571;DHT22;1295;51.130;6.732;2023-08-06T06:34:33;17.70;99.90
2571;DHT22;1295;51.130;6.732;2023-08-06T06:36:58;17.20;99.90
2571;DHT22;1295;51.130;6.732;2023-08-06T06:39:24;17.50;99.90
2571;DHT22;1295;51.130;6.732;2023-08-06T06:41:50;17.80;99.90
2571;DHT22;1295;51.130;6.732;2023-08-06T06:44:16;17.70;99.90
2571;DHT22;1295;51.130;6.732;2023-08-06T06:46:42;17.80;99.90
2571;DHT22;1295;51.130;6.732;2023-08-06T06:49:07;17.80;99.90
2571;DHT22;1295;51.130;6.732;2023-08-06T06:51:40;17.80;99.90
2571;DHT22;1295;51.130;6.732;2023-08-06T06:54:05;17.80;99.90
2571;DHT22;1295;51.130;6.732;2023-08-06T06:56:32;17.80;99.90
2571;DHT22;1295;51.130;6.732;2023-08-06T06:58:57;17.80;99.90
2571;DHT22;1295;51.130;6.732;2023-08-06T07:01:23;17.80;99.90
2571;DHT22;1295;51.130;6.732;2023-08-06T07:03:49;17.80;99.90
2571;DHT22;1295;51.130;6.732;2023-08-06T07:06:15;17.80;99.90
2571;DHT22;1295;51.130;6.732;2023-08-06T07:08:41;17.80;99.90
2571;DHT22;1295;51.130;6.732;2023-08-06T07:11:07;17.80;99.90
2571;DHT22;1295;51.130;6.732;2023-08-06T07:13:33;17.90;99.90
2571;DHT22;1295;51.130;6.732;2023-08-06T07:15:58;17.90;99.90
2571;DHT22;1295;51.130;6.732;2023-08-06T07:18:24;17.90;99.90
2571;DHT22;1295;51.130;6.732;2023-08-06T07:20:51;17.90;99.90
2571;DHT22;1295;51.130;6.732;2023-08-06T07:23:17;17.90;99.90
2571;DHT22;1295;51.130;6.732;2023-08-06T07:25:42;17.90;99.90
2571;DHT22;1295;51.130;6.732;2023-08-06T07:28:08;17.90;99.90
2571;DHT22;1295;51.130;6.732;2023-08-06T07:30:33;17.90;99.90
2571;DHT22;1295;51.130;6.732;2023-08-06T07:32:59;17.90;99.90
2571;DHT22;1295;51.130;6.732;2023-08-06T07:35:32;17.80;99.90
2571;DHT22;1295;51.130;6.732;2023-08-06T07:37:58;17.80;99.90
2571;DHT22;1295;51.130;6.732;2023-08-06T07:40:23;17.80;99.90
2571;DHT22;1295;51.130;6.732;2023-08-06T07:42:49;17.80;99.90
2571;DHT22;1295;51.130;6.732;2023-08-06T07:45:15;17.80;99.90
2571;DHT22;1295;51.130;6.732;2023-08-06T07:47:41;17.80;99.90
2571;DHT22;1295;51.130;6.732;2023-08-06T07:50:07;17.80;99.90
2571;DHT22;1295;51.130;6.732;2023-08-06T07:52:33;17.90;99.90
2571;DHT22;1295;51.130;6.732;2023-08-06T07:54:58;17.90;99.90
2571;DHT22;1295;51.130;6.732;2023-08-06T07:57:24;17.90;99.90
2571;DHT22;1295;51.130;6.732;2023-08-06T07:59:50;17.90;99.90
2571;DHT22;1295;51.130;6.732;2023-08-06T08:02:16;17.90;99.90
2571;DHT22;1295;51.130;6.732;2023-08-06T08:04:42;17.90;99.90
2571;DHT22;1295;51.130;6.732;2023-08-06T08:07:09;17.90;99.90
2571;DHT22;1295;51.130;6.732;2023-08-06T08:09:34;18.00;99.90
2571;DHT22;1295;51.130;6.732;2023-08-06T08:11:59;18.00;99.90
2571;DHT22;1295;51.130;6.732;2023-08-06T08:14:24;18.00;99.90
2571;DHT22;1295;51.130;6.732;2023-08-06T08:16:50;18.00;99.90
2571;DHT22;1295;51.130;6.732;2023-08-06T08:19:16;17.90;99.90
2571;DHT22;1295;51.130;6.732;2023-08-06T08:21:41;17.90;99.90
2571;DHT22;1295;51.130;6.732;2023-08-06T08:24:07;17.90;99.90
2571;DHT22;1295;51.130;6.732;2023-08-06T08:26:33;17.90;99.90
2571;DHT22;1295;51.130;6.732;2023-08-06T08:28:58;17.90;99.90
2571;DHT22;1295;51.130;6.732;2023-08-06T08:31:24;17.90;99.90
2571;DHT22;1295;51.130;6.732;2023-08-06T08:33:50;17.90;99.90
2571;DHT22;1295;51.130;6.732;2023-08-06T08:36:16;17.90;99.90
2571;DHT22;1295;51.130;6.732;2023-08-06T08:38:42;17.90;99.90
2571;DHT22;1295;51.130;6.732;2023-08-06T08:41:09;17.80;99.90
2571;DHT22;1295;51.130;6.732;2023-08-06T08:43:33;17.90;99.90
2571;DHT22;1295;51.130;6.732;2023-08-06T08:45:58;18.00;99.90
2571;DHT22;1295;51.130;6.732;2023-08-06T08:48:24;18.20;99.90
2571;DHT22;1295;51.130;6.732;2023-08-06T08:50:50;18.20;99.90
2571;DHT22;1295;51.130;6.732;2023-08-06T08:53:16;18.20;99.90
2571;DHT22;1295;51.130;6.732;2023-08-06T08:55:41;18.30;99.90
2571;DHT22;1295;51.130;6.732;2023-08-06T08:58:06;18.40;99.90
2571;DHT22;1295;51.130;6.732;2023-08-06T09:00:32;18.30;99.90
2571;DHT22;1295;51.130;6.732;2023-08-06T09:02:58;18.40;99.90
2571;DHT22;1295;51.130;6.732;2023-08-06T09:05:23;18.50;99.90
2571;DHT22;1295;51.130;6.732;2023-08-06T09:07:49;18.40;99.90
2571;DHT22;1295;51.130;6.732;2023-08-06T09:10:16;18.50;99.90
2571;DHT22;1295;51.130;6.732;2023-08-06T09:12:41;18.50;99.90
2571;DHT22;1295;51.130;6.732;2023-08-06T09:15:07;18.40;99.90
2571;DHT22;1295;51.130;6.732;2023-08-06T09:17:32;18.40;99.90
2571;DHT22;1295;51.130;6.732;2023-08-06T09:19:58;18.40;99.90
2571;DHT22;1295;51.130;6.732;2023-08-06T09:22:24;18.50;99.90
2571;DHT22;1295;51.130;6.732;2023-08-06T09:24:50;19.10;99.90
2571;DHT22;1295;51.130;6.732;2023-08-06T09:27:15;18.90;99.90
2571;DHT22;1295;51.130;6.732;2023-08-06T09:29:44;18.90;99.90
2571;DHT22;1295;51.130;6.732;2023-08-06T09:32:09;18.70;99.90
2571;DHT22;1295;51.130;6.732;2023-08-06T09:34:38;18.40;99.90
2571;DHT22;1295;51.130;6.732;2023-08-06T09:37:02;18.40;99.90
2571;DHT22;1295;51.130;6.732;2023-08-06T09:39:28;18.40;99.90
2571;DHT22;1295;51.130;6.732;2023-08-06T09:41:55;18.20;99.90
2571;DHT22;1295;51.130;6.732;2023-08-06T09:44:21;18.10;99.90
2571;DHT22;1295;51.130;6.732;2023-08-06T09:46:51;18.10;99.90
2571;DHT22;1295;51.130;6.732;2023-08-06T09:49:19;17.80;99.90
2571;DHT22;1295;51.130;6.732;2023-08-06T09:51:45;17.50;99.90
2571;DHT22;1295;51.130;6.732;2023-08-06T09:54:12;17.50;99.90
2571;DHT22;1295;51.130;6.732;2023-08-06T09:56:36;17.80;99.90
2571;DHT22;1295;51.130;6.732;2023-08-06T09:59:01;17.70;99.90
2571;DHT22;1295;51.130;6.732;2023-08-06T10:01:27;17.40;99.90
2571;DHT22;1295;51.130;6.732;2023-08-06T10:03:53;17.50;99.90
2571;DHT22;1295;51.130;6.732;2023-08-06T10:06:18;17.60;99.90
2571;DHT22;1295;51.130;6.732;2023-08-06T10:08:45;17.20;99.90
2571;DHT22;1295;51.130;6.732;2023-08-06T10:11:10;17.20;99.90
2571;DHT22;1295;51.130;6.732;2023-08-06T10:13:36;17.20;99.90
2571;DHT22;1295;51.130;6.732;2023-08-06T10:16:02;17.80;99.90
2571;DHT22;1295;51.130;6.732;2023-08-06T10:18:27;17.50;99.90
2571;DHT22;1295;51.130;6.732;2023-08-06T10:20:54;17.50;99.90
2571;DHT22;1295;51.130;6.732;2023-08-06T10:23:19;17.50;99.90
2571;DHT22;1295;51.130;6.732;2023-08-06T10:25:45;17.50;99.90
2571;DHT22;1295;51.130;6.732;2023-08-06T10:28:11;17.30;99.90
2571;DHT22;1295;51.130;6.732;2023-08-06T10:30:43;17.30;99.90
2571;DHT22;1295;51.130;6.732;2023-08-06T10:33:08;17.30;99.90
2571;DHT22;1295;51.130;6.732;2023-08-06T10:35:44;17.10;99.90
2571;DHT22;1295;51.130;6.732;2023-08-06T10:38:12;17.50;99.90
2571;DHT22;1295;51.130;6.732;2023-08-06T10:40:39;17.40;99.90
2571;DHT22;1295;51.130;6.732;2023-08-06T10:43:03;17.30;99.90
2571;DHT22;1295;51.130;6.732;2023-08-06T10:45:28;17.40;99.90
2571;DHT22;1295;51.130;6.732;2023-08-06T10:47:54;17.20;99.90
2571;DHT22;1295;51.130;6.732;2023-08-06T10:50:20;17.10;99.90
2571;DHT22;1295;51.130;6.732;2023-08-06T10:52:46;17.30;99.90
2571;DHT22;1295;51.130;6.732;2023-08-06T10:55:11;17.40;99.90
2571;DHT22;1295;51.130;6.732;2023-08-06T10:57:37;17.00;99.90
2571;DHT22;1295;51.130;6.732;2023-08-06T11:00:05;16.90;99.90
2571;DHT22;1295;51.130;6.732;2023-08-06T11:02:33;17.40;99.90
2571;DHT22;1295;51.130;6.732;2023-08-06T11:04:56;17.80;99.90
2571;DHT22;1295;51.130;6.732;2023-08-06T11:07:21;17.50;99.90
2571;DHT22;1295;51.130;6.732;2023-08-06T11:09:49;16.70;99.90
2571;DHT22;1295;51.130;6.732;2023-08-06T11:12:13;17.10;99.90
2571;DHT22;1295;51.130;6.732;2023-08-06T11:14:38;16.80;99.90
2571;DHT22;1295;51.130;6.732;2023-08-06T11:17:05;17.00;99.90
2571;DHT22;1295;51.130;6.732;2023-08-06T11:19:30;17.00;99.90
2571;DHT22;1295;51.130;6.732;2023-08-06T11:21:56;16.40;99.90
2571;DHT22;1295;51.130;6.732;2023-08-06T11:24:23;16.90;99.90
2571;DHT22;1295;51.130;6.732;2023-08-06T11:26:47;17.10;99.90
2571;DHT22;1295;51.130;6.732;2023-08-06T11:29:14;17.30;99.90
2571;DHT22;1295;51.130;6.732;2023-08-06T11:31:38;16.80;99.90
2571;DHT22;1295;51.130;6.732;2023-08-06T11:34:04;16.50;99.90
2571;DHT22;1295;51.130;6.732;2023-08-06T11:36:30;16.40;99.90
2571;DHT22;1295;51.130;6.732;2023-08-06T11:38:55;16.70;99.90
2571;DHT22;1295;51.130;6.732;2023-08-06T11:41:22;16.30;99.90
2571;DHT22;1295;51.130;6.732;2023-08-06T11:43:47;16.30;99.90
2571;DHT22;1295;51.130;6.732;2023-08-06T11:46:13;16.70;99.90
2571;DHT22;1295;51.130;6.732;2023-08-06T11:48:52;17.30;99.90
2571;DHT22;1295;51.130;6.732;2023-08-06T11:51:18;16.50;99.90
2571;DHT22;1295;51.130;6.732;2023-08-06T11:53:49;17.10;99.90
2571;DHT22;1295;51.130;6.732;2023-08-06T11:56:14;16.60;99.90
2571;DHT22;1295;51.130;6.732;2023-08-06T11:58:41;16.70;99.90
2571;DHT22;1295;51.130;6.732;2023-08-06T12:01:06;17.10;99.90
2571;DHT22;1295;51.130;6.732;2023-08-06T12:03:32;16.60;99.90
2571;DHT22;1295;51.130;6.732;2023-08-06T12:05:58;16.90;99.90
2571;DHT22;1295;51.130;6.732;2023-08-06T12:08:26;16.80;99.90
2571;DHT22;1295;51.130;6.732;2023-08-06T12:10:49;16.60;99.90
2571;DHT22;1295;51.130;6.732;2023-08-06T12:13:24;16.70;99.90
2571;DHT22;1295;51.130;6.732;2023-08-06T12:15:50;17.10;99.90
2571;DHT22;1295;51.130;6.732;2023-08-06T12:18:16;16.90;99.90
2571;DHT22;1295;51.130;6.732;2023-08-06T12:20:41;17.30;99.90
2571;DHT22;1295;51.130;6.732;2023-08-06T12:23:07;17.10;99.90
2571;DHT22;1295;51.130;6.732;2023-08-06T12:25:33;17.10;99.90
2571;DHT22;1295;51.130;6.732;2023-08-06T12:27:58;16.80;99.90
2571;DHT22;1295;51.130;6.732;2023-08-06T12:30:24;16.80;99.90
2571;DHT22;1295;51.130;6.732;2023-08-06T12:32:50;17.10;99.90
2571;DHT22;1295;51.130;6.732;2023-08-06T12:35:15;17.00;99.90
2571;DHT22;1295;51.130;6.732;2023-08-06T12:37:41;17.20;99.90
2571;DHT22;1295;51.130;6.732;2023-08-06T12:40:07;17.10;99.90
2571;DHT22;1295;51.130;6.732;2023-08-06T12:42:33;17.20;99.90
2571;DHT22;1295;51.130;6.732;2023-08-06T12:44:58;17.30;99.90
2571;DHT22;1295;51.130;6.732;2023-08-06T12:47:24;17.10;99.90
2571;DHT22;1295;51.130;6.732;2023-08-06T12:49:49;17.10;99.90
2571;DHT22;1295;51.130;6.732;2023-08-06T12:52:15;17.50;99.90
2571;DHT22;1295;51.130;6.732;2023-08-06T12:54:41;17.60;99.90
2571;DHT22;1295;51.130;6.732;2023-08-06T12:57:07;17.10;99.90
2571;DHT22;1295;51.130;6.732;2023-08-06T12:59:32;17.40;99.90
2571;DHT22;1295;51.130;6.732;2023-08-06T13:01:59;17.50;99.90
2571;DHT22;1295;51.130;6.732;2023-08-06T13:04:24;17.30;99.90
2571;DHT22;1295;51.130;6.732;2023-08-06T13:06:50;17.00;99.90
2571;DHT22;1295;51.130;6.732;2023-08-06T13:09:16;17.10;99.90
2571;DHT22;1295;51.130;6.732;2023-08-06T13:11:42;17.10;99.90
2571;DHT22;1295;51.130;6.732;2023-08-06T13:14:08;17.20;99.90
2571;DHT22;1295;51.130;6.732;2023-08-06T13:16:34;17.40;99.90
2571;DHT22;1295;51.130;6.732;2023-08-06T13:18:59;17.50;99.90
2571;DHT22;1295;51.130;6.732;2023-08-06T13:21:31;17.50;99.90
2571;DHT22;1295;51.130;6.732;2023-08-06T13:23:50;17.60;99.90
2571;DHT22;1295;51.130;6.732;2023-08-06T13:26:17;17.30;99.90
2571;DHT22;1295;51.130;6.732;2023-08-06T13:28:42;17.50;99.90
2571;DHT22;1295;51.130;6.732;2023-08-06T13:31:08;17.50;99.90
2571;DHT22;1295;51.130;6.732;2023-08-06T13:33:33;17.60;99.90
2571;DHT22;1295;51.130;6.732;2023-08-06T13:36:00;17.50;99.90
2571;DHT22;1295;51.130;6.732;2023-08-06T13:38:26;17.50;99.90
2571;DHT22;1295;51.130;6.732;2023-08-06T13:40:51;17.50;99.90
2571;DHT22;1295;51.130;6.732;2023-08-06T13:43:17;17.60;99.90
2571;DHT22;1295;51.130;6.732;2023-08-06T13:45:43;17.40;99.90
2571;DHT22;1295;51.130;6.732;2023-08-06T13:48:08;17.60;99.90
2571;DHT22;1295;51.130;6.732;2023-08-06T13:50:35;17.60;99.90
2571;DHT22;1295;51.130;6.732;2023-08-06T13:53:00;17.60;99.90
2571;DHT22;1295;51.130;6.732;2023-08-06T13:55:26;17.70;99.90
2571;DHT22;1295;51.130;6.732;2023-08-06T13:57:52;17.80;99.90
2571;DHT22;1295;51.130;6.732;2023-08-06T14:00:17;17.80;99.90
2571;DHT22;1295;51.130;6.732;2023-08-06T14:02:43;17.70;99.90
2571;DHT22;1295;51.130;6.732;2023-08-06T14:05:09;17.70;99.90
2571;DHT22;1295;51.130;6.732;2023-08-06T14:07:35;17.80;99.90
2571;DHT22;1295;51.130;6.732;2023-08-06T14:10:01;17.90;99.90
2571;DHT22;1295;51.130;6.732;2023-08-06T14:12:27;17.90;99.90
2571;DHT22;1295;51.130;6.732;2023-08-06T14:14:53;17.90;99.90
2571;DHT22;1295;51.130;6.732;2023-08-06T14:17:18;18.00;99.90
2571;DHT22;1295;51.130;6.732;2023-08-06T14:19:44;17.90;99.90
2571;DHT22;1295;51.130;6.732;2023-08-06T14:22:10;17.90;99.90
2571;DHT22;1295;51.130;6.732;2023-08-06T14:24:36;17.90;99.90
2571;DHT22;1295;51.130;6.732;2023-08-06T14:27:02;17.80;99.90
2571;DHT22;1295;51.130;6.732;2023-08-06T14:29:27;17.60;99.90
2571;DHT22;1295;51.130;6.732;2023-08-06T14:31:53;17.30;99.90
2571;DHT22;1295;51.130;6.732;2023-08-06T14:34:26;17.40;99.90
2571;DHT22;1295;51.130;6.732;2023-08-06T14:36:52;17.20;99.90
2571;DHT22;1295;51.130;6.732;2023-08-06T14:39:18;17.20;99.90
2571;DHT22;1295;51.130;6.732;2023-08-06T14:41:44;17.40;99.90
2571;DHT22;1295;51.130;6.732;2023-08-06T14:44:09;17.40;99.90
2571;DHT22;1295;51.130;6.732;2023-08-06T14:46:35;17.40;99.90
2571;DHT22;1295;51.130;6.732;2023-08-06T14:49:00;16.60;99.90
2571;DHT22;1295;51.130;6.732;2023-08-06T14:51:26;16.60;99.90
2571;DHT22;1295;51.130;6.732;2023-08-06T14:53:52;16.30;99.90
2571;DHT22;1295;51.130;6.732;2023-08-06T14:56:18;16.20;99.90
2571;DHT22;1295;51.130;6.732;2023-08-06T14:58:44;16.10;99.90
2571;DHT22;1295;51.130;6.732;2023-08-06T15:01:09;16.50;99.90
2571;DHT22;1295;51.130;6.732;2023-08-06T15:03:35;17.00;99.90
2571;DHT22;1295;51.130;6.732;2023-08-06T15:06:01;17.30;99.90
2571;DHT22;1295;51.130;6.732;2023-08-06T15:08:26;17.70;99.90
2571;DHT22;1295;51.130;6.732;2023-08-06T15:10:52;17.70;99.90
2571;DHT22;1295;51.130;6.732;2023-08-06T15:13:18;17.50;99.90
2571;DHT22;1295;51.130;6.732;2023-08-06T15:15:43;17.50;99.90
2571;DHT22;1295;51.130;6.732;2023-08-06T15:18:09;17.30;99.90
2571;DHT22;1295;51.130;6.732;2023-08-06T15:20:35;17.50;99.90
2571;DHT22;1295;51.130;6.732;2023-08-06T15:23:01;17.50;99.90
2571;DHT22;1295;51.130;6.732;2023-08-06T15:25:26;17.70;99.90
2571;DHT22;1295;51.130;6.732;2023-08-06T15:27:52;17.60;99.90
2571;DHT22;1295;51.130;6.732;2023-08-06T15:30:18;17.70;99.90
2571;DHT22;1295;51.130;6.732;2023-08-06T15:32:44;17.50;99.90
2571;DHT22;1295;51.130;6.732;2023-08-06T15:35:09;17.60;99.90
2571;DHT22;1295;51.130;6.732;2023-08-06T15:37:35;17.60;99.90
2571;DHT22;1295;51.130;6.732;2023-08-06T15:40:01;17.60;99.90
2571;DHT22;1295;51.130;6.732;2023-08-06T15:42:26;17.70;99.90
2571;DHT22;1295;51.130;6.732;2023-08-06T15:44:52;17.50;99.90
2571;DHT22;1295;51.130;6.732;2023-08-06T15:47:18;17.50;99.90
2571;DHT22;1295;51.130;6.732;2023-08-06T15:49:44;17.50;99.90
2571;DHT22;1295;51.130;6.732;2023-08-06T15:52:10;17.40;99.90
2571;DHT22;1295;51.130;6.732;2023-08-06T15:54:35;17.30;99.90